Latest Weather Observations for Woolshed

IDQ60801

Issued at 3:32 pm EST Monday 22 December 2014 (issued every 30 minutes, with the page automatically refreshed every 10 minutes)

About weather observations | Map of weather stations | Latest weather observations for QLD | Other Formats
Station Details ID: 033307 Name: WOOLSHED Lat: -19.42 Lon: 146.54 Height: 556.04 m
Data from the previous 72 hours. | See also: Recent months at Woolshed
Date/Time
EST
Temp
°C
App
Temp
°C
Dew
Point
Rel
Hum
%
Delta-T
°C
Wind Press
QNH
hPa
Press
MSL
hPa
Rain
since 9 am
mm
Dir
 
Spd
km/h
Gust
km/h
Spd
kts
Gust
kts
22/03:30pm 27.8 29.1 20.1 63 5.1 N 13 24 7 13 1013.9 1010.3 0.0
22/03:00pm 26.8 27.7 19.2 63 5.0 NNE 13 26 7 14 1014.0 1010.4 0.0
22/02:30pm 27.1 28.8 19.4 62 5.1 NNE 9 20 5 11 1014.4 1010.7 0.0
22/02:00pm 27.7 28.6 20.0 63 5.1 NNE 15 32 8 17 1014.7 1011.1 0.0
22/01:30pm 29.2 30.8 21.4 63 5.3 NNE 15 24 8 13 1015.0 1011.4 0.0
22/01:00pm 28.1 29.9 20.4 63 5.2 ENE 11 20 6 11 1015.2 1011.6 0.0
22/12:30pm 27.6 29.2 19.9 63 5.1 NNE 11 20 6 11 1015.6 1012.0 0.0
22/12:00pm 28.2 30.4 20.5 63 5.2 NE 9 17 5 9 1015.8 1012.2 0.0
22/11:30am 27.9 30.6 20.2 63 5.2 NNE 6 13 3 7 1016.1 1012.6 0.0
22/11:00am 26.8 28.4 19.2 63 5.0 NE 9 19 5 10 1016.5 1012.9 0.0
22/10:30am 26.3 28.1 18.7 63 5.0 NNE 7 17 4 9 1016.7 1013.1 0.0
22/10:00am 25.8 26.6 18.2 63 4.9 NE 11 26 6 14 1016.8 1013.2 0.0
22/09:30am 24.3 24.9 16.8 63 4.7 ENE 9 20 5 11 1016.9 1013.3 0.0
22/09:00am 24.6 25.7 17.1 63 4.7 NE 7 19 4 10 1016.7 1013.1 0.0
22/08:30am 24.0 24.5 16.5 63 4.7 NE 9 20 5 11 1016.4 1012.8 0.0
22/08:00am 23.2 23.0 15.8 63 4.6 ENE 11 22 6 12 1016.5 1012.9 0.0
22/07:30am 23.3 23.9 15.9 63 4.6 E 7 17 4 9 1016.3 1012.7 0.0
22/07:00am 21.9 21.6 14.5 63 4.5 E 9 17 5 9 1016.0 1012.4 0.0
22/06:30am 21.2 20.7 13.9 63 4.3 E 9 17 5 9 1015.6 1012.0 0.0
22/06:00am 20.7 20.1 13.4 63 4.3 E 9 17 5 9 1015.1 1011.5 0.0
22/05:30am 20.8 20.2 13.5 63 4.3 E 9 19 5 10 1014.7 1011.1 0.0
22/05:00am 21.1 20.6 13.8 63 4.3 ENE 9 19 5 10 1014.2 1010.6 0.0
22/04:30am 21.3 21.2 14.0 63 4.3 ENE 7 13 4 7 1014.1 1010.5 0.0
22/04:00am 21.1 21.2 13.8 63 4.3 E 6 19 3 10 1014.0 1010.4 0.0
22/03:30am 21.5 20.8 14.2 63 4.4 ENE 11 19 6 10 1014.0 1010.4 0.0
22/03:00am 21.4 21.0 14.1 63 4.4 ENE 9 19 5 10 1014.0 1010.4 0.0
22/02:30am 21.5 20.8 14.2 63 4.4 ENE 11 22 6 12 1014.2 1010.6 0.0
22/02:00am 21.5 21.1 14.2 63 4.4 ENE 9 19 5 10 1014.5 1010.8 0.0
22/01:30am 21.5 21.1 14.2 63 4.4 ENE 9 17 5 9 1015.0 1011.4 0.0
22/01:00am 21.7 21.0 14.4 63 4.4 ENE 11 17 6 9 1015.2 1011.6 0.0
22/12:30am 21.6 21.3 14.3 63 4.4 ENE 9 17 5 9 1015.5 1011.9 0.0
22/12:00am 21.8 21.5 14.4 63 4.4 ENE 9 22 5 12 1015.9 1012.3 0.0
 
Date/Time
EST
Temp
°C
App
Temp
°C
Dew
Point
Rel
Hum
%
Delta-T
°C
Wind Press
QNH
hPa
Press
MSL
hPa
Rain
since 9 am
mm
Dir
 
Spd
km/h
Gust
km/h
Spd
kts
Gust
kts
21/11:30pm 21.8 21.5 14.4 63 4.4 ENE 9 19 5 10 1016.0 1012.4 0.0
21/11:00pm 21.8 21.5 14.4 63 4.4 ENE 9 20 5 11 1016.0 1012.4 0.0
21/10:30pm 21.9 21.6 14.5 63 4.5 ENE 9 20 5 11 1016.4 1012.8 0.0
21/10:00pm 22.1 21.9 14.7 63 4.5 ENE 9 17 5 9 1016.3 1012.7 0.0
21/09:30pm 22.3 21.8 14.9 63 4.5 NE 11 19 6 10 1015.9 1012.3 0.0
21/09:00pm 22.4 22.3 15.0 63 4.5 NE 9 17 5 9 1015.7 1012.1 0.0
21/08:30pm 22.4 21.9 15.0 63 4.5 NE 11 22 6 12 1015.4 1011.8 0.0
21/08:00pm 22.8 21.7 15.4 63 4.5 NE 15 28 8 15 1015.3 1011.7 0.0
21/07:30pm 23.0 22.4 15.6 63 4.6 NE 13 26 7 14 1015.1 1011.5 0.0
21/07:00pm 23.4 23.3 16.0 63 4.6 NE 11 19 6 10 1015.0 1011.4 0.0
21/06:30pm 24.1 23.9 16.6 63 4.7 NE 13 22 7 12 1014.8 1011.2 0.0
21/06:00pm 24.9 25.0 17.4 63 4.8 NE 13 20 7 11 1014.5 1010.8 0.0
21/05:30pm 25.4 25.7 17.8 62 4.9 NNE 13 26 7 14 1014.1 1010.5 0.0
21/05:00pm 26.1 26.7 18.5 63 4.9 NE 13 22 7 12 1013.9 1010.3 0.0
21/04:30pm 27.1 28.1 19.4 62 5.1 NNE 13 22 7 12 1013.9 1010.3 0.0
21/04:00pm 27.5 29.0 19.8 63 5.1 NNE 11 22 6 12 1013.9 1010.3 0.0
21/03:30pm 27.4 28.9 19.7 63 5.1 NNE 11 22 6 12 1014.0 1010.4 0.0
21/03:00pm 28.3 29.8 20.6 63 5.2 NE 13 22 7 12 1014.1 1010.5 0.0
21/02:30pm 28.8 30.6 21.1 63 5.2 NNE 13 24 7 13 1014.5 1010.8 0.0
21/02:00pm 28.3 30.6 20.6 63 5.2 NE 9 20 5 11 1014.7 1011.1 0.0
21/01:30pm 29.5 32.0 21.7 63 5.3 NNE 11 20 6 11 1014.9 1011.3 0.0
21/01:00pm 27.4 28.9 19.7 63 5.1 NE 11 17 6 9 1015.3 1011.7 0.0
21/12:30pm 26.4 27.5 18.8 63 5.0 NNE 11 17 6 9 1015.7 1012.1 0.0
21/12:00pm 26.3 27.7 18.7 63 5.0 NNE 9 17 5 9 1016.0 1012.4 0.0
21/11:30am 26.3 27.3 18.7 63 5.0 NE 11 19 6 10 1016.5 1012.9 0.0
21/11:00am 26.1 27.4 18.5 63 4.9 NNE 9 15 5 8 1016.5 1012.9 0.0
21/10:30am 25.0 25.9 17.5 63 4.8 NNE 9 17 5 9 1016.5 1012.9 0.0
21/10:00am 24.1 23.9 16.6 63 4.7 NNE 13 24 7 13 1016.8 1013.2 0.0
21/09:30am 25.5 26.2 17.9 63 4.9 NE 11 19 6 10 1016.8 1013.2 0.0
21/09:00am 25.1 26.4 17.6 63 4.8 ENE 7 17 4 9 1016.5 1012.9 0.8
21/08:30am 23.8 24.2 16.3 63 4.7 NE 9 17 5 9 1016.3 1012.7 0.8
21/08:00am 23.1 23.7 15.7 63 4.6 E 7 17 4 9 1015.9 1012.3 0.8
21/07:30am 22.2 22.6 14.8 63 4.5 E 6 11 3 6 1016.0 1012.4 0.8
21/07:00am 22.1 22.5 14.7 63 4.5 E 6 11 3 6 1015.7 1012.1 0.8
21/06:30am 22.1 22.9 14.7 63 4.5 ENE 4 11 2 6 1015.4 1011.8 0.8
21/06:00am 21.8 22.1 14.4 63 4.4 ENE 6 9 3 5 1014.8 1011.2 0.8
21/05:30am 21.8 22.1 14.4 63 4.4 ENE 6 9 3 5 1014.5 1010.8 0.8
21/05:00am 21.7 21.8 14.4 63 4.4 ENE 7 13 4 7 1014.1 1010.5 0.8
21/04:30am 21.0 21.0 13.7 63 4.3 NE 6 11 3 6 1013.8 1010.2 0.8
21/04:00am 20.9 20.7 13.6 63 4.3 NE 7 13 4 7 1013.6 1010.0 0.8
21/03:30am 21.2 21.1 13.9 63 4.3 ENE 7 15 4 8 1013.8 1010.2 0.8
21/03:00am 21.5 21.1 14.2 63 4.4 NE 9 20 5 11 1013.9 1010.3 0.8
21/02:30am 21.6 21.3 14.3 63 4.4 ENE 9 17 5 9 1014.0 1010.4 0.8
21/02:00am 21.8 21.5 14.4 63 4.4 NE 9 15 5 8 1014.0 1010.4 0.8
21/01:30am 22.0 21.0 14.6 63 4.5 NE 13 24 7 13 1014.1 1010.5 0.6
21/01:00am 23.0 23.1 15.6 63 4.6 NE 9 19 5 10 1014.4 1010.7 0.0
21/12:30am 22.9 23.0 15.5 63 4.5 ENE 9 17 5 9 1014.6 1011.0 0.0
21/12:00am 23.0 23.1 15.6 63 4.6 ENE 9 17 5 9 1014.9 1011.3 0.0
 
Date/Time
EST
Temp
°C
App
Temp
°C
Dew
Point
Rel
Hum
%
Delta-T
°C
Wind Press
QNH
hPa
Press
MSL
hPa
Rain
since 9 am
mm
Dir
 
Spd
km/h
Gust
km/h
Spd
kts
Gust
kts
20/11:30pm 23.1 22.5 15.7 63 4.6 NE 13 20 7 11 1014.8 1011.2 0.0
20/11:00pm 23.1 23.3 15.7 63 4.6 NE 9 19 5 10 1015.0 1011.4 0.0
20/10:30pm 23.1 23.3 15.7 63 4.6 NE 9 17 5 9 1015.2 1011.6 0.0
20/10:00pm 23.2 23.0 15.8 63 4.6 ENE 11 19 6 10 1015.1 1011.5 0.0
20/09:30pm 23.3 23.6 15.9 63 4.6 ENE 9 22 5 12 1014.9 1011.3 0.0
20/09:00pm 23.3 23.6 15.9 63 4.6 NE 9 17 5 9 1014.7 1011.1 0.0
20/08:30pm 23.3 23.2 15.9 63 4.6 NE 11 19 6 10 1014.8 1011.2 0.0
20/08:00pm 23.4 24.1 16.0 63 4.6 NE 7 15 4 8 1014.7 1011.1 0.0
20/07:30pm 23.5 23.8 16.1 63 4.6 NNE 9 19 5 10 1014.1 1010.5 0.0
20/07:00pm 23.8 23.8 16.3 63 4.7 NE 11 19 6 10 1014.2 1010.6 0.0
20/06:30pm 24.0 24.5 16.5 63 4.7 NNE 9 19 5 10 1013.4 1009.8 0.0
20/06:00pm 24.6 25.7 17.1 63 4.8 NNE 7 13 4 7 1012.2 1008.6 0.0
20/05:30pm 25.2 25.0 17.7 63 4.8 NNE 15 26 8 14 1011.7 1008.1 0.0
20/05:00pm 26.6 27.4 19.0 63 5.0 NNE 13 24 7 13 1011.6 1008.0 0.0
20/04:30pm 26.9 27.8 19.3 63 5.0 NE 13 24 7 13 1011.5 1007.9 0.0
20/04:00pm 27.4 28.5 19.7 63 5.1 NE 13 24 7 13 1011.6 1008.0 0.0
20/03:30pm 28.0 29.4 20.3 63 5.2 NE 13 24 7 13 1011.7 1008.1 0.0
20/03:00pm 28.0 29.8 20.3 63 5.2 NNE 11 20 6 11 1012.1 1008.5 0.0
20/02:30pm 28.4 30.4 20.7 63 5.2 NE 11 19 6 10 1012.5 1008.8 0.0
20/02:00pm 28.0 29.8 20.3 63 5.2 NE 11 19 6 10 1012.8 1009.1 0.0
20/01:30pm 27.5 29.0 19.8 63 5.1 NE 11 20 6 11 1013.1 1009.5 0.0
20/01:00pm 27.1 28.4 19.4 62 5.1 NE 11 19 6 10 1013.8 1010.2 0.0
20/12:30pm 27.7 29.3 20.0 63 5.1 NE 11 17 6 9 1014.2 1010.6 0.0
20/12:00pm 27.6 29.9 19.9 63 5.1 NE 7 13 4 7 1014.7 1011.1 0.0
20/11:30am 27.4 29.6 19.7 63 5.1 NNE 7 15 4 8 1015.1 1011.5 0.0
20/11:00am 26.9 28.6 19.3 63 5.0 NNE 9 20 5 11 1015.4 1011.8 0.0
20/10:30am 26.4 27.9 18.8 63 5.0 ENE 9 19 5 10 1015.4 1011.8 0.0
20/10:00am 24.9 25.7 17.4 63 4.8 NE 9 15 5 8 1015.6 1012.0 0.0
20/09:30am 25.8 27.4 18.2 63 4.9 NE 7 13 4 7 1015.7 1012.1 0.0
20/09:00am 24.3 25.5 16.8 63 4.7 NNE 6 11 3 6 1015.6 1012.0 3.0
20/08:30am 23.4 24.3 16.0 63 4.6 NE 6 11 3 6 1015.5 1011.9 3.0
20/08:00am 23.1 23.8 15.7 63 4.6 ENE 6 11 3 6 1015.2 1011.6 3.0
20/07:30am 23.1 23.8 15.7 63 4.6 NE 6 11 3 6 1015.1 1011.5 3.0
20/07:00am 22.6 23.2 15.2 63 4.5 NE 6 7 3 4 1014.7 1011.1 3.0
20/06:30am 22.3 23.1 14.9 63 4.5 NE 4 7 2 4 1014.6 1011.0 3.0
20/06:00am 21.7 22.4 14.4 63 4.4 NE 4 4 2 2 1014.0 1010.4 3.0
20/05:30am 21.6 23.0 14.3 63 4.4 CALM 0 2 0 1 1013.7 1010.1 3.0
20/05:00am 21.7 22.4 14.4 63 4.4 NNE 4 7 2 4 1013.4 1009.8 3.0
20/04:30am 21.8 22.1 14.4 63 4.4 NE 6 9 3 5 1013.4 1009.8 3.0
20/04:00am 21.8 22.5 14.4 63 4.4 NE 4 7 2 4 1013.2 1009.6 3.0
20/03:30am 21.8 22.1 14.4 63 4.4 NE 6 9 3 5 1013.2 1009.6 3.0
20/03:00am 21.8 22.1 14.4 63 4.4 NE 6 9 3 5 1013.4 1009.8 3.0
20/02:30am 21.8 22.1 14.4 63 4.4 NE 6 9 3 5 1013.6 1010.0 3.0
20/02:00am 21.8 22.1 14.4 63 4.4 NE 6 9 3 5 1013.7 1010.1 3.0
20/01:30am 21.7 22.0 14.4 63 4.4 NNE 6 11 3 6 1013.8 1010.2 3.0
20/01:00am 22.0 22.3 14.6 63 4.5 NE 6 9 3 5 1014.1 1010.5 3.0
20/12:30am 22.0 22.7 14.6 63 4.5 NE 4 9 2 5 1014.4 1010.7 3.0
20/12:00am 22.1 22.3 14.7 63 4.5 NE 7 13 4 7 1014.8 1011.2 3.0
 
Date/Time
EST
Temp
°C
App
Temp
°C
Dew
Point
Rel
Hum
%
Delta-T
°C
Wind Press
QNH
hPa
Press
MSL
hPa
Rain
since 9 am
mm
Dir
 
Spd
km/h
Gust
km/h
Spd
kts
Gust
kts
19/11:30pm 21.9 22.0 14.5 63 4.5 NNE 7 15 4 8 1014.9 1011.3 3.0
19/11:00pm 21.6 22.2 14.3 63 4.4 NE 4 7 2 4 1015.3 1011.7 3.0
19/10:30pm 21.3 21.4 14.0 63 4.3 NNE 6 9 3 5 1015.1 1011.5 3.0
19/10:00pm 21.9 22.2 14.5 63 4.5 NE 6 9 3 5 1015.1 1011.5 3.0
19/09:30pm 22.1 22.5 14.7 63 4.5 NNE 6 9 3 5 1015.1 1011.5 1.4
19/09:00pm 22.1 22.5 14.7 63 4.5 NNE 6 9 3 5 1014.8 1011.2 1.4
19/08:30pm 23.0 23.5 15.6 63 4.6 NNE 7 13 4 7 1014.7 1011.1 0.0
19/08:00pm 23.0 23.5 15.6 63 4.6 NNE 7 13 4 7 1014.6 1011.0 0.0
19/07:30pm 23.2 23.8 15.8 63 4.6 NNE 7 17 4 9 1014.5 1010.8 0.0
19/07:00pm 23.6 23.9 16.1 62 4.7 NNE 9 15 5 8 1014.1 1010.5 0.0
19/06:30pm 24.2 25.1 16.7 63 4.7 NNE 7 13 4 7 1013.8 1010.2 0.0
19/06:00pm 25.0 26.3 17.5 63 4.8 NNE 7 15 4 8 1013.4 1009.8 0.0
19/05:30pm 26.3 27.3 18.7 63 5.0 NE 11 19 6 10 1012.8 1009.1 0.0
19/05:00pm 27.3 29.1 19.6 62 5.1 NE 9 17 5 9 1012.2 1008.6 0.0
19/04:30pm 28.2 30.1 20.5 63 5.2 NNE 11 19 6 10 1012.0 1008.4 0.0
19/04:00pm 28.7 31.2 21.0 63 5.2 NE 9 15 5 8 1012.2 1008.6 0.0

Other Formats:

Comma delimited format used in spreadsheet applications
http://www.bom.gov.au/fwo/IDQ60801/IDQ60801.95293.axf

JavaScript Object Notation format (JSON) in row-major order
http://www.bom.gov.au/fwo/IDQ60801/IDQ60801.95293.json